This is the latest recevied weather packets stored in our database for station/object K3BAY-1. If no packets are shown the sender has not sent any weather packets the latest 10 day(s).
| Time | Temp. | Humidity | Pressure | Rain* | Wind** | Luminosity | Snow |
|---|---|---|---|---|---|---|---|
| 1777934289 | 21.67° C | 44% | 1011.9 hPa | 0 mm | - | 61 W/m² | - |
| 1777933076 | 22.22° C | 42% | 1012.6 hPa | 0 mm | - | 136 W/m² | - |
| 1777932773 | 22.22° C | 42% | 1012.6 hPa | 0 mm | - | 154 W/m² | - |
| 1777932470 | 22.22° C | 42% | 1012.6 hPa | 0 mm | - | 168 W/m² | - |
| 1777932167 | 22.78° C | 42% | 1012.6 hPa | 0 mm | - | 194 W/m² | - |
| 1777931864 | 22.78° C | 42% | 1012.6 hPa | 0 mm | - | 184 W/m² | - |
| 1777931560 | 22.78° C | 42% | 1012.6 hPa | 0 mm | - | 213 W/m² | - |
| 1777931256 | 22.78° C | 41% | 1012.6 hPa | 0 mm | - | 223 W/m² | - |
| 1777930953 | 22.78° C | 41% | 1012.6 hPa | 0 mm | - | 252 W/m² | - |
| 1777930650 | 22.78° C | 41% | 1012.9 hPa | 0 mm | - | 269 W/m² | - |
| 1777930043 | 23.33° C | 40% | 1012.6 hPa | 0 mm | - | 301 W/m² | - |
| 1777929734 | 22.78° C | 40% | 1012.6 hPa | 0 mm | - | 322 W/m² | - |
| 1777929431 | 22.78° C | 41% | 1012.9 hPa | 0 mm | - | 345 W/m² | - |
| 1777929128 | 22.78° C | 41% | 1012.9 hPa | 0 mm | - | 362 W/m² | - |
| 1777927313 | 22.78° C | 40% | 1013.2 hPa | 0 mm | - | 459 W/m² | - |
| 1777927011 | 22.78° C | 40% | 1012.9 hPa | 0 mm | - | 468 W/m² | - |
| 1777925495 | 23.89° C | 38% | 1013.6 hPa | 0 mm | - | 513 W/m² | - |
| 1777925192 | 23.89° C | 37% | 1013.6 hPa | 0 mm | - | 532 W/m² | - |
| 1777924281 | 23.89° C | 37% | 1013.6 hPa | 0 mm | - | 583 W/m² | - |
| 1777923674 | 23.33° C | 37% | 1013.6 hPa | 0 mm | - | 576 W/m² | - |
| 1777923069 | 23.33° C | 37% | 1013.9 hPa | 0 mm | - | 612 W/m² | - |
| 1777921858 | 23.89° C | 36% | 1013.9 hPa | 0 mm | - | 649 W/m² | - |
| 1777919733 | 22.78° C | 37% | 1014.2 hPa | 0 mm | - | 661 W/m² | - |
| 1777919431 | 23.33° C | 36% | 1014.2 hPa | 0 mm | - | 654 W/m² | - |
| 1777916102 | 23.33° C | 38% | 1014.6 hPa | 0 mm | - | 753 W/m² | - |
* Rain latest hour (hover to see other rain measurements)
** Current wind speed in m/s (hover to see current wind gust speed)